createdAt,value
2018-09-05T00:00:10.494Z,56.68
2018-09-05T00:02:40.045Z,57.21
2018-09-05T00:05:09.609Z,56.86
2018-09-05T00:07:38.727Z,56.97
2018-09-05T00:10:07.845Z,56.85
2018-09-05T00:12:36.931Z,56.85
2018-09-05T00:15:07.468Z,57.11
2018-09-05T00:17:36.763Z,56.86
2018-09-05T00:20:05.845Z,57.04
2018-09-05T00:22:34.956Z,56.83
2018-09-05T00:25:04.022Z,56.77
2018-09-05T00:27:33.155Z,57.12
2018-09-05T00:30:02.235Z,56.96
2018-09-05T00:32:31.320Z,57.09
2018-09-05T00:35:00.426Z,56.95
2018-09-05T00:37:29.499Z,56.92
2018-09-05T00:39:58.572Z,57.09
2018-09-05T00:42:27.667Z,56.71
2018-09-05T00:44:56.796Z,56.85
2018-09-05T00:47:25.909Z,56.90
2018-09-05T00:49:59.462Z,56.56
2018-09-05T00:52:44.852Z,56.47
2018-09-05T00:55:15.464Z,56.64
2018-09-05T00:57:49.475Z,56.87
2018-09-05T01:00:18.635Z,56.72
2018-09-05T01:02:48.620Z,56.86
2018-09-05T01:05:23.504Z,56.79
2018-09-05T01:07:53.072Z,56.94
2018-09-05T01:10:22.139Z,56.57
2018-09-05T01:12:52.172Z,56.81
2018-09-05T01:15:26.251Z,56.74
2018-09-05T01:17:55.351Z,57.04
2018-09-05T01:20:24.528Z,56.99
2018-09-05T01:22:56.433Z,56.71
2018-09-05T01:25:29.533Z,56.77
2018-09-05T01:27:58.763Z,57.03
2018-09-05T01:30:31.917Z,57.06
2018-09-05T01:33:04.095Z,57.14
2018-09-05T01:35:33.241Z,56.71
2018-09-05T01:38:02.783Z,56.80
2018-09-05T01:40:36.757Z,57.04
2018-09-05T01:43:06.515Z,57.23
2018-09-05T01:45:35.835Z,57.03
2018-09-05T01:48:05.626Z,57.09
2018-09-05T01:50:43.412Z,57.22
2018-09-05T01:53:15.277Z,56.98
2018-09-05T01:55:47.419Z,56.95
2018-09-05T01:58:16.583Z,56.84
2018-09-05T02:00:45.780Z,57.19
2018-09-05T02:03:16.983Z,57.21
2018-09-05T02:05:49.641Z,57.15
2018-09-05T02:08:18.770Z,57.11
2018-09-05T02:10:48.033Z,57.17
2018-09-05T02:13:20.584Z,56.79
2018-09-05T02:15:53.043Z,57.22
2018-09-05T02:18:22.206Z,56.80
2018-09-05T02:20:51.711Z,57.05
2018-09-05T02:23:26.201Z,56.97
2018-09-05T02:25:55.871Z,57.13
2018-09-05T02:28:25.104Z,57.31
2018-09-05T02:30:55.021Z,57.33
2018-09-05T02:33:29.336Z,56.90
2018-09-05T02:35:58.743Z,56.84
2018-09-05T02:38:28.186Z,57.02
2018-09-05T02:41:01.166Z,56.90
2018-09-05T02:43:39.581Z,56.99
2018-09-05T02:46:11.778Z,56.66
2018-09-05T02:48:40.979Z,56.68
2018-09-05T02:51:10.115Z,56.70
2018-09-05T02:53:41.904Z,56.92
2018-09-05T02:56:14.251Z,56.82
2018-09-05T02:58:43.752Z,57.02
2018-09-05T03:01:12.979Z,56.89
2018-09-05T03:03:46.067Z,57.26
2018-09-05T03:06:17.189Z,57.04
2018-09-05T03:08:46.443Z,56.92
2018-09-05T03:11:16.117Z,56.85
2018-09-05T03:13:49.901Z,56.91
2018-09-05T03:16:19.769Z,56.99
2018-09-05T03:18:48.908Z,57.25
2018-09-05T03:21:18.238Z,56.87
2018-09-05T03:23:52.755Z,57.30
2018-09-05T03:26:22.621Z,57.40
2018-09-05T03:28:51.743Z,57.89
2018-09-05T03:31:21.991Z,57.60
2018-09-05T03:33:54.155Z,57.99
2018-09-05T03:36:24.243Z,58.07
2018-09-05T03:38:53.368Z,58.17
2018-09-05T03:41:22.520Z,58.29
2018-09-05T03:43:51.621Z,58.24
2018-09-05T03:46:20.699Z,58.19
2018-09-05T03:48:49.771Z,58.52
2018-09-05T03:51:18.841Z,58.23
2018-09-05T03:53:48.004Z,58.34
2018-09-05T03:56:17.104Z,58.36
2018-09-05T03:58:46.167Z,58.66
2018-09-05T04:01:15.305Z,58.42
2018-09-05T04:03:44.487Z,58.42
2018-09-05T04:06:17.739Z,58.09
2018-09-05T04:08:46.898Z,58.23
2018-09-05T04:11:15.989Z,58.31
2018-09-05T04:13:45.028Z,58.09
2018-09-05T04:16:14.286Z,58.42
2018-09-05T04:18:43.340Z,58.38
2018-09-05T04:21:12.419Z,58.18
2018-09-05T04:23:45.415Z,57.94
2018-09-05T04:26:15.632Z,57.90
2018-09-05T04:28:44.835Z,58.05
2018-09-05T04:31:14.891Z,57.99
2018-09-05T04:33:43.959Z,58.05
2018-09-05T04:36:14.355Z,57.92
2018-09-05T04:38:44.043Z,58.23
2018-09-05T04:41:13.267Z,58.19
2018-09-05T04:43:42.343Z,58.12
2018-09-05T04:46:11.428Z,58.21
2018-09-05T04:48:40.620Z,58.20
2018-09-05T04:51:09.598Z,57.82
2018-09-05T04:53:38.669Z,58.13
2018-09-05T04:56:08.060Z,57.94
2018-09-05T04:58:37.123Z,57.83
2018-09-05T05:01:06.276Z,58.05
2018-09-05T05:03:35.300Z,58.16
2018-09-05T05:06:04.483Z,58.10
2018-09-05T05:08:33.664Z,58.03
2018-09-05T05:11:02.729Z,57.69
2018-09-05T05:13:31.829Z,57.79
2018-09-05T05:16:00.908Z,57.79
2018-09-05T05:18:30.050Z,58.00
2018-09-05T05:20:59.172Z,57.78
2018-09-05T05:23:28.341Z,57.73
2018-09-05T05:25:57.552Z,57.76
2018-09-05T05:28:26.638Z,57.93
2018-09-05T05:30:55.736Z,57.49
2018-09-05T05:33:24.964Z,57.41
2018-09-05T05:35:54.045Z,57.24
2018-09-05T05:38:23.168Z,57.39
2018-09-05T05:40:52.346Z,57.82
2018-09-05T05:43:21.448Z,57.52
2018-09-05T05:45:50.522Z,57.76
2018-09-05T05:48:19.641Z,57.51
2018-09-05T05:50:49.452Z,57.44
2018-09-05T05:53:18.520Z,57.45
2018-09-05T05:55:47.548Z,57.67
2018-09-05T05:58:16.620Z,57.31
2018-09-05T06:00:45.732Z,57.56
2018-09-05T06:03:15.138Z,57.43
2018-09-05T06:05:44.238Z,57.74
2018-09-05T06:08:13.290Z,57.47
2018-09-05T06:10:42.403Z,57.43
2018-09-05T06:13:11.489Z,57.57
2018-09-05T06:15:40.688Z,57.52
2018-09-05T06:18:09.943Z,57.25
2018-09-05T06:20:38.939Z,57.62
2018-09-05T06:23:08.022Z,57.22
2018-09-05T06:25:37.092Z,57.60
2018-09-05T06:28:06.199Z,57.44
2018-09-05T06:30:35.412Z,57.41
2018-09-05T06:33:04.788Z,57.36
2018-09-05T06:35:33.778Z,57.14
2018-09-05T06:38:03.156Z,57.34
2018-09-05T06:40:32.283Z,57.11
2018-09-05T06:43:01.357Z,57.54
2018-09-05T06:45:30.436Z,57.51
2018-09-05T06:47:59.680Z,57.42
2018-09-05T06:50:28.780Z,57.33
2018-09-05T06:53:18.912Z,57.41
2018-09-05T06:55:47.924Z,57.26
2018-09-05T06:58:17.072Z,57.27
2018-09-05T07:00:46.368Z,57.35
2018-09-05T07:03:15.449Z,56.90
2018-09-05T07:05:44.557Z,57.28
2018-09-05T07:08:13.952Z,57.29
2018-09-05T07:10:43.025Z,57.12
2018-09-05T07:13:12.141Z,57.14
2018-09-05T07:15:41.231Z,57.36
2018-09-05T07:18:10.371Z,57.09
2018-09-05T07:20:39.573Z,56.92
2018-09-05T07:23:08.615Z,57.09
2018-09-05T07:25:37.828Z,57.30
2018-09-05T07:28:06.922Z,57.02
2018-09-05T07:30:36.028Z,57.23
2018-09-05T07:33:05.308Z,57.00
2018-09-05T07:35:34.464Z,56.88
2018-09-05T07:38:03.706Z,56.88
2018-09-05T07:40:33.120Z,56.60
2018-09-05T07:43:02.219Z,56.90
2018-09-05T07:45:31.558Z,56.71
2018-09-05T07:48:00.756Z,56.77
2018-09-05T07:50:29.828Z,57.06
2018-09-05T07:52:59.091Z,56.95
2018-09-05T07:55:28.204Z,56.98
2018-09-05T07:57:57.302Z,57.10
2018-09-05T08:00:26.398Z,56.63
2018-09-05T08:02:55.540Z,56.80
2018-09-05T08:05:24.772Z,56.94
2018-09-05T08:07:53.788Z,56.69
2018-09-05T08:10:22.881Z,56.61
2018-09-05T08:12:51.971Z,56.41
2018-09-05T08:15:20.982Z,56.64
2018-09-05T08:17:50.487Z,56.36
2018-09-05T08:20:19.660Z,56.52
2018-09-05T08:22:48.960Z,56.62
2018-09-05T08:25:18.074Z,56.72
2018-09-05T08:27:47.134Z,56.53
2018-09-05T08:30:16.192Z,56.81
2018-09-05T08:32:45.259Z,56.77
2018-09-05T08:35:14.503Z,56.45
2018-09-05T08:37:43.868Z,56.72
2018-09-05T08:40:13.028Z,56.77
2018-09-05T08:42:42.175Z,56.29
2018-09-05T08:45:11.527Z,56.29
2018-09-05T08:47:40.540Z,56.25
2018-09-05T08:50:09.644Z,56.16
2018-09-05T08:52:38.643Z,56.46
2018-09-05T08:55:08.007Z,56.17
2018-09-05T08:57:37.242Z,56.11
2018-09-05T09:00:09.331Z,56.23
2018-09-05T09:02:38.393Z,56.06
2018-09-05T09:05:07.931Z,56.45
2018-09-05T09:07:37.512Z,56.08
2018-09-05T09:10:06.799Z,56.33
2018-09-05T09:12:35.921Z,56.10
2018-09-05T09:15:05.507Z,56.29
2018-09-05T09:17:34.603Z,56.33
2018-09-05T09:20:03.593Z,56.23
2018-09-05T09:22:32.673Z,56.45
2018-09-05T09:25:01.785Z,56.01
2018-09-05T09:27:31.983Z,56.17
2018-09-05T09:30:01.475Z,56.33
2018-09-05T09:32:30.647Z,56.01
2018-09-05T09:34:59.701Z,56.39
2018-09-05T09:37:28.797Z,56.35
2018-09-05T09:39:57.885Z,56.12
2018-09-05T09:42:27.151Z,56.18
2018-09-05T09:44:56.303Z,56.06
2018-09-05T09:47:25.416Z,56.42
2018-09-05T09:49:54.415Z,56.04
2018-09-05T09:52:23.643Z,56.05
2018-09-05T09:54:53.364Z,55.99
2018-09-05T09:57:22.439Z,56.07
2018-09-05T09:59:51.603Z,56.22
2018-09-05T10:02:26.069Z,55.96
2018-09-05T10:05:00.435Z,55.72
2018-09-05T10:07:34.834Z,56.25
2018-09-05T10:10:09.446Z,56.14
2018-09-05T10:12:47.662Z,56.22
2018-09-05T10:15:22.218Z,56.15
2018-09-05T10:17:56.646Z,56.18
2018-09-05T10:20:25.759Z,56.11
2018-09-05T10:22:55.130Z,55.71
2018-09-05T10:25:24.241Z,55.90
2018-09-05T10:27:53.315Z,56.14
2018-09-05T10:30:22.322Z,55.85
2018-09-05T10:32:51.535Z,55.94
2018-09-05T10:35:20.711Z,55.92
2018-09-05T10:37:50.139Z,55.91
2018-09-05T10:40:19.328Z,55.85
2018-09-05T10:42:48.423Z,55.53
2018-09-05T10:45:17.511Z,56.17
2018-09-05T10:47:46.624Z,55.61
2018-09-05T10:50:15.712Z,55.77
2018-09-05T10:52:44.807Z,55.92
2018-09-05T10:55:13.895Z,55.53
2018-09-05T10:57:42.972Z,55.99
2018-09-05T11:00:12.096Z,55.86
2018-09-05T11:02:41.213Z,55.62
2018-09-05T11:05:10.355Z,54.65
2018-09-05T11:07:39.487Z,55.01
2018-09-05T11:10:08.580Z,55.22
2018-09-05T11:12:37.656Z,55.01
2018-09-05T11:15:07.136Z,55.30
2018-09-05T11:17:36.252Z,55.06
2018-09-05T11:20:06.271Z,55.16
2018-09-05T11:22:35.400Z,55.05
2018-09-05T11:25:04.566Z,55.18
2018-09-05T11:27:33.944Z,55.08
2018-09-05T11:30:03.467Z,55.61
2018-09-05T11:32:32.572Z,55.56
2018-09-05T11:35:01.703Z,55.08
2018-09-05T11:37:31.553Z,55.35
2018-09-05T11:40:00.733Z,54.99
2018-09-05T11:42:29.877Z,55.33
2018-09-05T11:44:58.967Z,55.35
2018-09-05T11:47:28.080Z,54.95
2018-09-05T11:49:57.144Z,55.55
2018-09-05T11:52:26.351Z,55.21
2018-09-05T11:54:55.789Z,55.41
2018-09-05T11:57:24.946Z,55.36
2018-09-05T11:59:54.287Z,55.18
2018-09-05T12:02:23.450Z,54.92
2018-09-05T12:04:52.820Z,55.17
2018-09-05T12:07:22.170Z,55.22
2018-09-05T12:09:51.284Z,55.45
2018-09-05T12:12:20.504Z,55.19
2018-09-05T12:14:49.876Z,55.29
2018-09-05T12:17:18.997Z,55.49
2018-09-05T12:19:48.067Z,55.33
2018-09-05T12:22:17.160Z,55.55
2018-09-05T12:24:46.714Z,55.57
2018-09-05T12:27:15.844Z,55.38
2018-09-05T12:29:44.922Z,55.33
2018-09-05T12:32:13.988Z,55.05
2018-09-05T12:34:43.071Z,55.53
2018-09-05T12:37:12.207Z,55.47
2018-09-05T12:39:41.340Z,55.59
2018-09-05T12:42:10.465Z,55.39
2018-09-05T12:44:39.635Z,55.62
2018-09-05T12:47:08.951Z,55.54
2018-09-05T12:49:38.061Z,55.60
2018-09-05T12:52:07.363Z,55.59
2018-09-05T12:54:36.515Z,55.58
2018-09-05T12:57:05.640Z,55.20
2018-09-05T12:59:34.731Z,55.35
2018-09-05T13:02:03.919Z,55.61
2018-09-05T13:04:33.007Z,55.21
2018-09-05T13:07:02.099Z,55.22
2018-09-05T13:09:31.216Z,54.75
2018-09-05T13:12:00.372Z,55.25
2018-09-05T13:14:29.517Z,55.17
2018-09-05T13:16:58.613Z,54.46
2018-09-05T13:19:27.721Z,54.79
2018-09-05T13:21:56.883Z,54.85
2018-09-05T13:24:25.983Z,55.26
2018-09-05T13:26:55.132Z,55.41
2018-09-05T13:29:24.395Z,55.44
2018-09-05T13:31:53.463Z,55.12
2018-09-05T13:34:22.593Z,55.20
2018-09-05T13:36:51.693Z,55.50
2018-09-05T13:39:20.767Z,55.21
2018-09-05T13:41:49.890Z,55.37
2018-09-05T13:44:18.970Z,55.26
2018-09-05T13:46:48.268Z,54.43
2018-09-05T13:49:17.484Z,54.69
2018-09-05T13:51:51.896Z,55.04
2018-09-05T13:54:21.096Z,54.72
2018-09-05T13:56:51.304Z,54.62
2018-09-05T13:59:20.412Z,55.06
2018-09-05T14:01:49.696Z,54.95
2018-09-05T14:04:18.803Z,55.01
2018-09-05T14:06:47.869Z,54.41
2018-09-05T14:09:16.984Z,54.32
2018-09-05T14:11:46.396Z,54.50
2018-09-05T14:14:15.496Z,54.52
2018-09-05T14:16:50.166Z,54.75
2018-09-05T14:19:24.860Z,54.86
2018-09-05T14:21:54.060Z,55.15
2018-09-05T14:24:23.144Z,54.94
2018-09-05T14:26:52.232Z,54.88
2018-09-05T14:29:21.343Z,54.66
2018-09-05T14:31:50.423Z,54.59
2018-09-05T14:34:19.523Z,54.44
2018-09-05T14:36:48.615Z,54.95
2018-09-05T14:39:17.691Z,54.86
2018-09-05T14:41:46.688Z,54.65
2018-09-05T14:44:15.793Z,54.79
2018-09-05T14:46:44.913Z,54.58
2018-09-05T14:49:14.168Z,54.53
2018-09-05T14:51:43.304Z,54.97
2018-09-05T14:54:12.425Z,54.91
2018-09-05T14:56:41.676Z,54.84
2018-09-05T14:59:10.768Z,54.44
2018-09-05T15:01:39.996Z,54.56
2018-09-05T15:04:09.047Z,54.63
2018-09-05T15:06:38.334Z,54.65
2018-09-05T15:09:09.287Z,54.69
2018-09-05T15:11:38.428Z,54.72
2018-09-05T15:14:07.955Z,54.23
2018-09-05T15:16:37.114Z,54.54
2018-09-05T15:19:06.573Z,54.31
2018-09-05T15:21:35.952Z,54.61
2018-09-05T15:24:05.040Z,54.56
2018-09-05T15:26:34.084Z,54.31
2018-09-05T15:29:03.481Z,54.38
2018-09-05T15:31:32.704Z,54.32
2018-09-05T15:34:01.800Z,54.50
2018-09-05T15:36:30.943Z,54.36
2018-09-05T15:39:00.008Z,54.61
2018-09-05T15:41:29.101Z,54.34
2018-09-05T15:43:58.182Z,54.14
2018-09-05T15:46:27.252Z,54.27
2018-09-05T15:48:56.345Z,54.46
2018-09-05T15:51:25.460Z,54.54
2018-09-05T15:53:54.654Z,54.27
2018-09-05T15:56:23.843Z,54.52
2018-09-05T15:58:52.951Z,54.05
2018-09-05T16:01:22.064Z,54.43
2018-09-05T16:03:51.197Z,54.42
2018-09-05T16:06:20.274Z,54.33
2018-09-05T16:08:49.756Z,54.14
2018-09-05T16:11:18.808Z,54.42
2018-09-05T16:13:47.928Z,54.20
2018-09-05T16:16:17.279Z,54.40
2018-09-05T16:18:46.360Z,54.12
2018-09-05T16:21:15.452Z,54.51
2018-09-05T16:23:44.504Z,54.37
2018-09-05T16:26:13.567Z,54.42
2018-09-05T16:28:42.664Z,54.17
2018-09-05T16:31:11.934Z,54.04
2018-09-05T16:33:41.072Z,54.32
2018-09-05T16:36:10.174Z,54.09
2018-09-05T16:38:39.424Z,54.09
2018-09-05T16:41:08.535Z,54.10
2018-09-05T16:43:37.604Z,54.31
2018-09-05T16:46:07.435Z,53.99
2018-09-05T16:48:36.675Z,54.13
2018-09-05T16:51:06.748Z,53.88
2018-09-05T16:53:35.830Z,54.00
2018-09-05T16:56:04.912Z,54.02
2018-09-05T16:58:34.116Z,53.93
2018-09-05T17:01:03.293Z,54.08
2018-09-05T17:03:32.789Z,54.07
2018-09-05T17:06:01.913Z,54.09
2018-09-05T17:08:31.158Z,54.21
2018-09-05T17:11:00.430Z,53.81
2018-09-05T17:13:29.669Z,54.01
2018-09-05T17:15:58.811Z,53.95
2018-09-05T17:18:27.912Z,54.25
2018-09-05T17:20:57.034Z,54.27
2018-09-05T17:23:26.131Z,54.13
2018-09-05T17:25:55.200Z,54.12
2018-09-05T17:28:24.568Z,54.16
2018-09-05T17:30:53.824Z,54.26
2018-09-05T17:33:22.928Z,54.17
2018-09-05T17:35:52.204Z,54.05
2018-09-05T17:38:21.572Z,54.04
2018-09-05T17:40:51.017Z,53.92
2018-09-05T17:43:20.273Z,54.16
2018-09-05T17:45:49.468Z,54.06
2018-09-05T17:48:19.074Z,54.21
2018-09-05T17:50:48.553Z,54.15
2018-09-05T17:53:17.698Z,54.03
2018-09-05T17:55:47.152Z,54.45
2018-09-05T17:58:16.212Z,54.09
2018-09-05T18:00:45.344Z,54.00
2018-09-05T18:03:14.444Z,54.40
2018-09-05T18:05:43.640Z,54.38
2018-09-05T18:08:12.762Z,54.01
2018-09-05T18:10:42.050Z,54.22
2018-09-05T18:13:11.172Z,54.40
2018-09-05T18:15:40.296Z,54.45
2018-09-05T18:18:09.500Z,54.35
2018-09-05T18:20:38.610Z,54.12
2018-09-05T18:23:08.354Z,54.13
2018-09-05T18:25:37.528Z,54.18
2018-09-05T18:28:06.608Z,54.18
2018-09-05T18:30:35.712Z,54.47
2018-09-05T18:33:04.776Z,54.42
2018-09-05T18:35:33.915Z,54.29
2018-09-05T18:38:03.087Z,54.41
2018-09-05T18:40:32.384Z,54.15
2018-09-05T18:43:07.506Z,54.24
2018-09-05T18:45:36.632Z,54.38
2018-09-05T18:48:05.831Z,54.46
2018-09-05T18:50:35.189Z,54.29
2018-09-05T18:53:10.283Z,54.39
2018-09-05T18:55:40.198Z,54.35
2018-09-05T18:58:09.504Z,54.23
2018-09-05T19:00:38.752Z,54.35
2018-09-05T19:03:09.174Z,54.25
2018-09-05T19:05:38.311Z,54.30
2018-09-05T19:08:07.831Z,54.21
2018-09-05T19:10:36.895Z,54.13
2018-09-05T19:13:06.184Z,54.20
2018-09-05T19:15:35.287Z,54.43
2018-09-05T19:18:04.354Z,54.33
2018-09-05T19:20:33.436Z,54.04
2018-09-05T19:23:02.587Z,54.47
2018-09-05T19:25:31.704Z,54.08
2018-09-05T19:28:00.795Z,54.40
2018-09-05T19:30:29.861Z,54.28
2018-09-05T19:32:58.968Z,54.28
2018-09-05T19:35:28.120Z,54.58
2018-09-05T19:37:57.412Z,54.23
2018-09-05T19:40:26.574Z,54.52
2018-09-05T19:42:55.686Z,54.25
2018-09-05T19:45:24.766Z,54.50
2018-09-05T19:47:53.826Z,54.52
2018-09-05T19:50:23.032Z,54.25
2018-09-05T19:52:52.361Z,54.39
2018-09-05T19:55:21.422Z,54.31
2018-09-05T19:57:50.483Z,54.35
2018-09-05T20:00:19.552Z,54.45
2018-09-05T20:02:48.616Z,54.19
2018-09-05T20:05:17.663Z,54.46
2018-09-05T20:07:46.828Z,54.38
2018-09-05T20:10:15.894Z,54.10
2018-09-05T20:12:44.966Z,54.33
2018-09-05T20:15:14.111Z,54.19
2018-09-05T20:17:43.220Z,54.25
2018-09-05T20:20:12.325Z,54.42
2018-09-05T20:22:41.692Z,54.33
2018-09-05T20:25:10.814Z,53.98
2018-09-05T20:27:39.904Z,54.46
2018-09-05T20:30:08.985Z,54.26
2018-09-05T20:32:38.092Z,54.51
2018-09-05T20:35:07.215Z,54.09
2018-09-05T20:37:36.482Z,54.08
2018-09-05T20:40:05.551Z,54.41
2018-09-05T20:42:34.627Z,54.36
2018-09-05T20:45:03.836Z,54.48
2018-09-05T20:47:32.887Z,54.19
2018-09-05T20:50:01.956Z,54.24
2018-09-05T20:52:31.279Z,54.52
2018-09-05T20:55:00.343Z,54.38
2018-09-05T20:57:29.486Z,54.57
2018-09-05T20:59:58.582Z,54.27
2018-09-05T21:02:27.976Z,54.04
2018-09-05T21:04:57.081Z,54.48
2018-09-05T21:07:26.185Z,54.44
2018-09-05T21:09:55.261Z,54.36
2018-09-05T21:12:24.356Z,54.01
2018-09-05T21:14:53.443Z,54.52
2018-09-05T21:17:22.566Z,53.92
2018-09-05T21:19:51.937Z,54.26
2018-09-05T21:22:21.040Z,54.20
2018-09-05T21:24:50.095Z,53.88
2018-09-05T21:27:19.262Z,54.02
2018-09-05T21:29:48.535Z,54.35
2018-09-05T21:32:17.599Z,53.92
2018-09-05T21:34:46.678Z,54.08
2018-09-05T21:37:15.734Z,53.96
2018-09-05T21:39:44.848Z,53.96
2018-09-05T21:42:14.001Z,54.05
2018-09-05T21:44:43.329Z,54.31
2018-09-05T21:47:12.422Z,54.36
2018-09-05T21:49:41.487Z,54.11
2018-09-05T21:52:10.579Z,54.29
2018-09-05T21:54:39.695Z,54.33
2018-09-05T21:57:08.759Z,54.23
2018-09-05T21:59:37.823Z,54.03
2018-09-05T22:02:06.999Z,54.15
2018-09-05T22:04:36.071Z,53.93
2018-09-05T22:07:05.161Z,54.29
2018-09-05T22:09:34.260Z,53.92
2018-09-05T22:12:03.387Z,54.16
2018-09-05T22:14:32.458Z,53.88
2018-09-05T22:17:01.511Z,53.76
2018-09-05T22:19:30.639Z,54.25
2018-09-05T22:21:59.767Z,53.85
2018-09-05T22:24:28.835Z,54.04
2018-09-05T22:26:57.879Z,53.95
2018-09-05T22:29:26.971Z,54.24
2018-09-05T22:31:56.131Z,53.90
2018-09-05T22:34:25.245Z,53.99
2018-09-05T22:36:54.353Z,54.27
2018-09-05T22:39:23.408Z,54.29
2018-09-05T22:41:52.523Z,54.13
2018-09-05T22:44:33.028Z,54.11
2018-09-05T22:47:13.500Z,54.35
2018-09-05T22:52:06.225Z,54.13
2018-09-05T22:55:05.776Z,54.42
2018-09-05T22:59:49.406Z,54.35
2018-09-05T23:04:33.372Z,54.49
2018-09-05T23:09:12.912Z,54.52
2018-09-05T23:11:53.915Z,54.40
2018-09-05T23:14:39.202Z,54.64
2018-09-05T23:17:20.054Z,54.62
2018-09-05T23:20:04.415Z,54.44
2018-09-05T23:22:44.972Z,54.19
2018-09-05T23:25:14.140Z,54.32
2018-09-05T23:27:43.306Z,54.54
2018-09-05T23:30:12.388Z,54.25
2018-09-05T23:32:41.496Z,54.07
2018-09-05T23:35:10.576Z,54.29
2018-09-05T23:37:39.630Z,54.14
2018-09-05T23:40:08.678Z,54.08
2018-09-05T23:42:37.744Z,54.19
2018-09-05T23:45:06.877Z,54.11
2018-09-05T23:47:35.953Z,54.20
2018-09-05T23:50:05.054Z,54.15
2018-09-05T23:52:34.186Z,53.99
2018-09-05T23:55:03.276Z,54.10
2018-09-05T23:57:34.312Z,54.17
